Reuben, Nebraska
Current Conditions -  °F | °C
As of 2:55 PM on Saturday 25 Oct 2014 (Local Time) from KHDE Reporting Station
Clear Clear  
Wind Chill: 76°   Ceiling: Unl
Heat Index: 78°   Visibility: 10mi
Dew Point: 46°   Wind: 10mph
Humidity: 35%   Direction: 110°ESE
Pressure: 30.05"   Gusts: NA
Location:  40.2849°N, 99.6171°W
Report Text: KHDE 251955Z AUTO 11009KT 10SM CLR 25/08 A3005 RMK AO2 T02450079
Loading
Personal Weather Stations






























Interactive Weather Map New forecast layout! Learn more

10-Day Weather Forecast

Advertisements
Track Severe Weather on mobile